KIAG/IAG METAR and TAF weather

Enter ICAO airport designator
Station Type Date Time Source
KIAG METAR 2020/04/09 09:53 UTC NOAA

KIAG 090953Z AUTO 17004KT 8SM -RA FEW041 OVC060 07/06 RMK AO2 RAE25B44 SLPNO P0000 T00670061 $


Station Type Date Time Source
KIAG Decoded METAR 2020/04/09 09:53 UTC NOAA

NIAGARA FALLS INTERNATIONAL AIRPORT, NY, United States (KIAG) 43-07N 078-56W 182M
Apr 09, 2020 - 05:53 AM EDT / 2020.04.09 0953 UTC
Wind: from the S (170 degrees) at 5 MPH (4 KT):0
Visibility: 8 mile(s):0
Sky conditions: overcast
Weather: light rain
Precipitation last hour: A trace
Temperature: 44.1 F (6.7 C)
Dew Point: 43.0 F (6.1 C)
Relative Humidity: 95%
ob: KIAG 090953Z AUTO 17004KT 8SM -RA FEW041 OVC060 07/06 RMK AO2 RAE25B44 SLPNO P0000 T00670061
cycle: 10

Station Type Date Time Source
KIAG TAF 2020/04/09 10:33 UTC NOAA

TAF
AMD KIAG 090931Z 0910/1006 VRB03KT 5SM -SHRA BR BKN030
FM091200 25006KT 4SM -SHRA OVC007
FM091300 30020G32KT P6SM OVC007
FM091400 30020G32KT P6SM BKN040
FM092300 29014G25KT P6SM BKN080

Example: see airport list